Time;durP1;ratioP1;P1;durP2;ratioP2;P2;SDS_P1;SDS_P2;PMS_P1;PMS_P2;Temp;Humidity;BMP_temperature;BMP_pressure;BME280_temperature;BME280_humidity;BME280_pressure;Samples;Min_cycle;Max_cycle;Signal;HPM_P1;HPM_P2
2023/04/27 00:02:24;;;;;;;1.13;0.30;;;19.80;58.60;;;;;;4990025;28;20052;-76
2023/04/27 00:04:50;;;;;;;1.00;0.40;;;19.70;57.90;;;;;;4990020;28;20061;-77
2023/04/27 00:07:17;;;;;;;0.95;0.32;;;19.70;57.90;;;;;;4989519;28;20046;-76
2023/04/27 00:09:45;;;;;;;0.82;0.15;;;19.70;58.00;;;;;;4989569;28;20058;-77
2023/04/27 00:12:13;;;;;;;1.27;0.20;;;19.70;58.00;;;;;;4987462;28;20488;-77
2023/04/27 00:14:40;;;;;;;1.83;0.20;;;19.60;58.00;;;;;;4989852;28;20073;-76
2023/04/27 00:17:07;;;;;;;2.20;0.40;;;19.60;58.10;;;;;;4987970;28;20053;-76
2023/04/27 00:19:34;;;;;;;1.23;0.20;;;19.50;58.00;;;;;;4990311;28;20773;-77
2023/04/27 00:22:01;;;;;;;0.82;0.25;;;19.50;58.00;;;;;;4988704;28;20507;-76
2023/04/27 00:24:28;;;;;;;1.02;0.30;;;19.50;58.10;;;;;;4987312;28;20046;-76
2023/04/27 00:26:55;;;;;;;0.73;0.20;;;19.50;58.10;;;;;;4996001;28;20050;-77
2023/04/27 00:29:23;;;;;;;1.20;0.25;;;19.50;58.10;;;;;;4988456;28;20046;-77
2023/04/27 00:31:50;;;;;;;1.05;0.30;;;19.40;58.10;;;;;;4989386;28;20416;-77
2023/04/27 00:34:17;;;;;;;1.20;0.20;;;19.40;58.10;;;;;;4986295;28;20050;-77
2023/04/27 00:36:44;;;;;;;0.80;0.10;;;19.40;58.10;;;;;;4989499;28;20046;-77
2023/04/27 00:39:11;;;;;;;3.10;0.22;;;19.40;58.10;;;;;;4989354;28;20558;-77
2023/04/27 00:41:39;;;;;;;1.60;0.20;;;19.30;58.00;;;;;;4987774;28;20057;-76
2023/04/27 00:44:06;;;;;;;1.88;0.47;;;19.40;58.10;;;;;;4989444;28;20116;-77
2023/04/27 00:46:35;;;;;;;1.73;0.22;;;19.40;58.10;;;;;;4988677;28;20425;-77
2023/04/27 00:49:02;;;;;;;2.50;0.22;;;19.30;58.00;;;;;;4985717;28;20475;-76
2023/04/27 00:51:30;;;;;;;1.50;0.30;;;19.40;58.00;;;;;;4984821;28;20093;-77
2023/04/27 00:53:58;;;;;;;2.47;0.30;;;19.40;58.00;;;;;;4992705;28;20055;-76
2023/04/27 00:56:24;;;;;;;1.10;0.30;;;19.40;57.90;;;;;;4984955;28;20447;-76
2023/04/27 00:58:51;;;;;;;0.70;0.30;;;19.50;57.90;;;;;;4990990;28;20058;-76
2023/04/27 01:01:19;;;;;;;0.93;0.20;;;19.50;57.80;;;;;;4984971;28;20054;-75
2023/04/27 01:03:48;;;;;;;0.82;0.30;;;19.60;58.50;;;;;;4986180;28;20415;-76
2023/04/27 01:06:15;;;;;;;2.28;0.30;;;19.60;57.70;;;;;;4979952;28;20082;-77
2023/04/27 01:08:42;;;;;;;0.90;0.20;;;19.60;57.60;;;;;;4986686;28;20054;-77
2023/04/27 01:11:09;;;;;;;1.10;0.50;;;19.70;57.50;;;;;;4951023;28;1102014;-77
2023/04/27 01:13:36;;;;;;;0.98;0.20;;;19.80;57.40;;;;;;4992912;28;20093;-77
2023/04/27 01:16:02;;;;;;;1.52;0.22;;;19.80;57.30;;;;;;4987194;28;20550;-76
2023/04/27 01:18:29;;;;;;;1.02;0.20;;;19.90;57.20;;;;;;4989505;28;20420;-77
2023/04/27 01:20:59;;;;;;;1.55;0.40;;;19.90;57.10;;;;;;4987761;28;20154;-76
2023/04/27 01:23:27;;;;;;;1.35;0.13;;;20.00;57.00;;;;;;4986914;28;20097;-76
2023/04/27 01:25:54;;;;;;;2.05;0.30;;;20.00;56.90;;;;;;4981975;28;20142;-77
2023/04/27 01:28:21;;;;;;;1.83;0.25;;;20.00;56.80;;;;;;4988333;28;20526;-77
2023/04/27 01:30:48;;;;;;;0.75;0.15;;;20.00;56.80;;;;;;4989494;28;20054;-76
2023/04/27 01:33:15;;;;;;;1.17;0.30;;;20.10;56.90;;;;;;4988127;28;20065;-76
2023/04/27 01:35:42;;;;;;;2.30;0.30;;;20.00;56.80;;;;;;4986977;28;20058;-77
2023/04/27 01:38:09;;;;;;;1.10;0.30;;;20.00;56.80;;;;;;4989055;28;20514;-77
2023/04/27 01:40:37;;;;;;;1.05;0.30;;;20.00;56.90;;;;;;4987583;28;20513;-76
2023/04/27 01:43:05;;;;;;;1.10;0.43;;;20.00;56.90;;;;;;4987106;28;20046;-77
2023/04/27 01:45:32;;;;;;;0.88;0.20;;;20.00;56.90;;;;;;4989396;28;20053;-76
2023/04/27 01:47:58;;;;;;;1.52;0.38;;;19.90;56.90;;;;;;4986555;28;20058;-77
2023/04/27 01:50:26;;;;;;;1.33;0.30;;;19.90;57.00;;;;;;4987336;28;20130;-77
2023/04/27 01:52:53;;;;;;;1.45;0.25;;;19.90;57.00;;;;;;4987056;28;20078;-77
2023/04/27 01:55:20;;;;;;;0.73;0.20;;;19.90;57.00;;;;;;4987119;28;20050;-77
2023/04/27 01:57:48;;;;;;;1.10;0.28;;;19.90;57.10;;;;;;4988434;28;20057;-77
2023/04/27 02:00:16;;;;;;;1.17;0.20;;;19.80;57.10;;;;;;4978789;28;20070;-77
2023/04/27 02:02:44;;;;;;;3.28;0.32;;;19.80;57.10;;;;;;4990316;28;20436;-77
2023/04/27 02:05:11;;;;;;;1.58;0.20;;;19.80;57.10;;;;;;4994550;28;20059;-75
2023/04/27 02:07:38;;;;;;;1.55;0.30;;;19.70;57.10;;;;;;4992504;28;20054;-77
2023/04/27 02:10:06;;;;;;;1.95;0.20;;;19.70;57.10;;;;;;4980653;28;20054;-77
2023/04/27 02:12:33;;;;;;;0.95;0.20;;;19.70;57.30;;;;;;4991619;28;20046;-77
2023/04/27 02:15:02;;;;;;;2.08;0.70;;;19.60;57.20;;;;;;4989026;28;20054;-76
2023/04/27 02:17:30;;;;;;;1.10;0.30;;;19.60;57.20;;;;;;4988746;28;20069;-76
2023/04/27 02:19:57;;;;;;;0.90;0.20;;;19.60;57.20;;;;;;4982837;28;20125;-76
2023/04/27 02:22:24;;;;;;;1.77;0.30;;;19.60;57.30;;;;;;4990632;28;20409;-77
2023/04/27 02:24:50;;;;;;;1.35;0.30;;;19.50;58.00;;;;;;4993599;28;20058;-76
2023/04/27 02:27:17;;;;;;;1.50;0.25;;;19.50;57.30;;;;;;4994999;28;20050;-74
2023/04/27 02:29:44;;;;;;;0.85;0.30;;;19.50;57.30;;;;;;4990469;28;20594;-77
2023/04/27 02:32:13;;;;;;;1.15;0.30;;;19.50;57.40;;;;;;4990499;28;20046;-76
2023/04/27 02:34:40;;;;;;;0.93;0.30;;;19.50;57.40;;;;;;4990096;28;20058;-76
2023/04/27 02:37:07;;;;;;;1.75;0.10;;;19.40;57.30;;;;;;4991959;28;20126;-77
2023/04/27 02:39:34;;;;;;;0.88;0.22;;;19.40;57.40;;;;;;4981434;28;20061;-76
2023/04/27 02:42:01;;;;;;;1.08;0.30;;;19.40;57.40;;;;;;4989178;28;20054;-76
2023/04/27 02:44:29;;;;;;;0.80;0.30;;;19.40;58.10;;;;;;4987891;28;20697;-76
2023/04/27 02:46:56;;;;;;;1.00;0.30;;;19.40;58.10;;;;;;4988173;28;20138;-76
2023/04/27 02:49:24;;;;;;;1.30;0.40;;;19.40;57.40;;;;;;4990588;28;20412;-76
2023/04/27 02:51:51;;;;;;;0.93;0.30;;;19.50;57.40;;;;;;4991160;28;20431;-76
2023/04/27 02:54:18;;;;;;;1.00;0.20;;;19.50;57.30;;;;;;4978455;28;20054;-76
2023/04/27 02:56:45;;;;;;;0.77;0.10;;;19.50;57.30;;;;;;4983555;28;20495;-76
2023/04/27 02:59:11;;;;;;;1.13;0.22;;;19.50;57.20;;;;;;4979075;28;20054;-76
2023/04/27 03:01:38;;;;;;;1.08;0.20;;;19.60;57.20;;;;;;4990050;28;20530;-75
2023/04/27 03:04:05;;;;;;;1.60;0.20;;;19.60;57.10;;;;;;4990201;28;20058;-77
2023/04/27 03:06:34;;;;;;;1.38;0.30;;;19.70;57.00;;;;;;4987241;28;20062;-76
2023/04/27 03:09:02;;;;;;;1.02;0.20;;;19.70;56.90;;;;;;4988758;28;20042;-77
2023/04/27 03:11:29;;;;;;;1.63;0.30;;;19.80;56.80;;;;;;4979313;28;20051;-76
2023/04/27 03:13:56;;;;;;;1.35;0.20;;;19.90;56.70;;;;;;4981372;28;20057;-77
2023/04/27 03:16:23;;;;;;;1.20;0.35;;;19.90;57.30;;;;;;4984128;28;20054;-76
2023/04/27 03:18:50;;;;;;;1.33;0.30;;;20.00;56.60;;;;;;4988588;28;20050;-78
2023/04/27 03:21:17;;;;;;;1.45;0.13;;;20.00;57.10;;;;;;4990902;28;20494;-76
2023/04/27 03:23:45;;;;;;;0.55;0.10;;;20.10;56.40;;;;;;4987998;28;20049;-77
2023/04/27 03:26:14;;;;;;;1.30;0.22;;;20.10;56.30;;;;;;4990245;28;20163;-77
2023/04/27 03:28:41;;;;;;;1.42;0.20;;;20.10;56.20;;;;;;4986168;28;20050;-77
2023/04/27 03:31:10;;;;;;;0.80;0.20;;;20.10;56.30;;;;;;4992867;28;20050;-76
2023/04/27 03:33:37;;;;;;;1.35;0.30;;;20.10;56.30;;;;;;4985149;28;20415;-77
2023/04/27 03:36:06;;;;;;;1.15;0.20;;;20.10;56.40;;;;;;4990514;28;20058;-76
2023/04/27 03:38:33;;;;;;;1.52;0.38;;;20.10;56.40;;;;;;4977600;28;20054;-76
2023/04/27 03:41:02;;;;;;;1.00;0.20;;;20.00;56.40;;;;;;4990993;28;20047;-76
2023/04/27 03:43:29;;;;;;;0.95;0.22;;;20.00;56.50;;;;;;4988858;28;20256;-76
2023/04/27 03:45:56;;;;;;;0.80;0.10;;;20.00;56.50;;;;;;4990557;28;20058;-77
2023/04/27 03:48:23;;;;;;;1.92;0.47;;;19.90;56.50;;;;;;4988929;28;20060;-76
2023/04/27 03:50:50;;;;;;;1.35;0.30;;;19.90;56.50;;;;;;4990436;28;20054;-76
2023/04/27 03:53:17;;;;;;;0.82;0.25;;;19.90;57.30;;;;;;4990614;28;20058;-77
2023/04/27 03:55:45;;;;;;;0.60;0.17;;;19.90;56.60;;;;;;4989686;28;20056;-77
2023/04/27 03:58:13;;;;;;;0.73;0.35;;;19.80;56.60;;;;;;4990235;28;20081;-77
2023/04/27 04:00:41;;;;;;;1.85;0.20;;;19.80;56.60;;;;;;4991038;28;20050;-77
2023/04/27 04:03:08;;;;;;;0.68;0.20;;;19.80;56.70;;;;;;4989891;28;20046;-75
2023/04/27 04:05:35;;;;;;;1.20;0.15;;;19.80;56.70;;;;;;4990122;28;20084;-77
2023/04/27 04:08:02;;;;;;;1.40;0.15;;;19.70;56.70;;;;;;4982755;28;20495;-77
2023/04/27 04:10:29;;;;;;;0.60;0.10;;;19.70;56.80;;;;;;4984493;28;20148;-76
2023/04/27 04:12:56;;;;;;;0.55;0.10;;;19.70;56.80;;;;;;4990825;28;20050;-76
2023/04/27 04:15:24;;;;;;;1.00;0.20;;;19.60;56.80;;;;;;4990030;28;20054;-77
2023/04/27 04:17:51;;;;;;;0.70;0.20;;;19.60;56.80;;;;;;4990466;28;20050;-78
2023/04/27 04:20:18;;;;;;;0.60;0.10;;;19.60;57.60;;;;;;4990574;28;20047;-75
2023/04/27 04:22:45;;;;;;;0.70;0.30;;;19.50;56.90;;;;;;4991970;28;20084;-77
2023/04/27 04:25:12;;;;;;;1.10;0.20;;;19.50;57.00;;;;;;4997302;28;20047;-77
2023/04/27 04:27:39;;;;;;;0.77;0.22;;;19.50;57.00;;;;;;4989933;28;20047;-77
2023/04/27 04:30:07;;;;;;;0.88;0.28;;;19.50;57.00;;;;;;4989097;28;20069;-76
2023/04/27 04:32:37;;;;;;;1.10;0.22;;;19.50;57.10;;;;;;4989639;28;20042;-77
2023/04/27 04:35:05;;;;;;;0.93;0.30;;;19.40;57.00;;;;;;4988813;28;20097;-77
2023/04/27 04:37:34;;;;;;;1.20;0.38;;;19.40;57.00;;;;;;4988973;28;20069;-76
2023/04/27 04:40:07;;;;;;;1.00;0.40;;;19.40;57.00;;;;;;4989204;28;20061;-77
2023/04/27 04:42:35;;;;;;;1.10;0.20;;;19.40;57.00;;;;;;4989041;28;20046;-76
2023/04/27 04:45:03;;;;;;;0.93;0.40;;;19.40;57.00;;;;;;4989927;28;20137;-76
2023/04/27 04:47:31;;;;;;;0.95;0.68;;;19.40;56.90;;;;;;4989845;28;20408;-77
2023/04/27 04:50:00;;;;;;;0.90;0.20;;;19.50;56.90;;;;;;4977693;28;20088;-77
2023/04/27 04:52:27;;;;;;;0.90;0.13;;;19.50;56.90;;;;;;4988810;28;21244;-77
2023/04/27 04:54:54;;;;;;;1.02;0.20;;;19.50;56.80;;;;;;4990027;28;20051;-77
2023/04/27 04:57:22;;;;;;;0.90;0.30;;;19.60;56.80;;;;;;4989131;28;20046;-76
2023/04/27 04:59:48;;;;;;;1.42;0.22;;;19.60;56.60;;;;;;4989781;28;20064;-77
2023/04/27 05:02:15;;;;;;;0.93;0.10;;;19.70;56.60;;;;;;4987869;28;20062;-77
2023/04/27 05:04:42;;;;;;;1.05;0.20;;;19.70;56.50;;;;;;4988578;28;20050;-76
2023/04/27 05:07:11;;;;;;;0.73;0.20;;;19.70;56.40;;;;;;4985468;28;20057;-76
2023/04/27 05:09:39;;;;;;;1.13;0.30;;;19.80;56.30;;;;;;4976465;28;20129;-77
2023/04/27 05:12:06;;;;;;;0.70;0.20;;;19.90;56.20;;;;;;4989072;28;20054;-76
2023/04/27 05:14:34;;;;;;;0.52;0.20;;;19.90;56.10;;;;;;4988407;28;20058;-76
2023/04/27 05:17:01;;;;;;;1.15;0.20;;;20.00;56.00;;;;;;4974970;28;20070;-76
2023/04/27 05:19:29;;;;;;;0.60;0.10;;;20.10;56.00;;;;;;4989419;28;20042;-76
2023/04/27 05:21:57;;;;;;;1.00;0.25;;;20.10;55.90;;;;;;4988363;28;20534;-77
2023/04/27 05:24:26;;;;;;;1.05;0.20;;;20.10;55.90;;;;;;4991672;28;20050;-77
2023/04/27 05:26:53;;;;;;;0.77;0.20;;;20.10;55.90;;;;;;4988885;28;20126;-78
2023/04/27 05:29:20;;;;;;;0.60;0.10;;;20.10;55.90;;;;;;4988291;28;20109;-77
2023/04/27 05:31:47;;;;;;;1.20;0.30;;;20.10;55.90;;;;;;4987832;28;20046;-77
2023/04/27 05:34:14;;;;;;;0.45;0.20;;;20.10;55.90;;;;;;4989077;28;20061;-76
2023/04/27 05:36:40;;;;;;;0.80;0.20;;;20.10;56.00;;;;;;4984390;28;20050;-76
2023/04/27 05:39:07;;;;;;;0.80;0.10;;;20.00;55.90;;;;;;4985410;28;20057;-77
2023/04/27 05:41:36;;;;;;;0.80;0.20;;;20.00;56.00;;;;;;4986781;28;20058;-77
2023/04/27 05:44:03;;;;;;;0.60;0.20;;;20.00;56.00;;;;;;4984706;28;20057;-76
2023/04/27 05:46:30;;;;;;;1.20;0.30;;;20.00;56.10;;;;;;4985688;28;20101;-77
2023/04/27 05:48:57;;;;;;;0.85;0.20;;;20.00;56.10;;;;;;4989425;28;20062;-77
2023/04/27 05:51:24;;;;;;;1.30;0.20;;;19.90;56.10;;;;;;4987450;28;20050;-76
2023/04/27 05:53:53;;;;;;;0.65;0.15;;;19.90;56.20;;;;;;4990440;28;20069;-77
2023/04/27 05:56:20;;;;;;;;;;;19.90;56.20;;;;;;4988871;28;20494;-77
2023/04/27 05:58:49;;;;;;;0.90;0.20;;;19.90;56.20;;;;;;4988502;28;19922;-77
2023/04/27 06:01:16;;;;;;;1.10;0.20;;;19.80;56.20;;;;;;4987670;28;20463;-77
2023/04/27 06:03:42;;;;;;;1.00;0.30;;;19.80;56.30;;;;;;4988141;28;20799;-77
2023/04/27 06:06:09;;;;;;;0.88;0.30;;;19.80;56.30;;;;;;4987400;28;20133;-77
2023/04/27 06:08:38;;;;;;;1.10;0.22;;;19.80;56.40;;;;;;4987015;28;20496;-76
2023/04/27 06:11:05;;;;;;;0.60;0.10;;;19.70;56.40;;;;;;4986832;28;20050;-76
2023/04/27 06:13:32;;;;;;;0.43;0.10;;;19.70;56.50;;;;;;4986277;28;20133;-77
2023/04/27 06:16:01;;;;;;;0.70;0.20;;;19.70;57.30;;;;;;4990238;28;20085;-77
2023/04/27 06:18:28;;;;;;;1.30;0.22;;;19.70;56.60;;;;;;4988557;28;20049;-77
2023/04/27 06:21:00;;;;;;;0.50;0.20;;;19.60;56.50;;;;;;4987820;28;20105;-77
2023/04/27 06:23:26;;;;;;;0.82;0.10;;;19.60;56.60;;;;;;4986834;28;20073;-77
2023/04/27 06:25:53;;;;;;;0.82;0.20;;;19.60;56.60;;;;;;4985864;28;20408;-77
2023/04/27 06:28:20;;;;;;;1.00;0.20;;;19.60;56.70;;;;;;4987556;28;20058;-77
2023/04/27 06:30:47;;;;;;;1.58;0.20;;;19.60;56.70;;;;;;4987815;28;20467;-76
2023/04/27 06:33:16;;;;;;;0.80;0.30;;;19.60;56.70;;;;;;4981422;28;20051;-77
2023/04/27 06:35:43;;;;;;;0.75;0.20;;;19.50;56.70;;;;;;4980012;28;20055;-76
2023/04/27 06:38:10;;;;;;;0.82;0.20;;;19.50;56.70;;;;;;4980146;28;20516;-76
2023/04/27 06:40:37;;;;;;;0.80;0.30;;;19.50;56.70;;;;;;4987976;28;20133;-76
2023/04/27 06:43:04;;;;;;;0.65;0.10;;;19.50;56.70;;;;;;4982929;28;20054;-77
2023/04/27 06:45:31;;;;;;;0.80;0.10;;;19.50;56.70;;;;;;4989221;28;20053;-77
2023/04/27 06:47:57;;;;;;;0.63;0.13;;;19.60;56.70;;;;;;4988977;28;20062;-77
2023/04/27 06:50:26;;;;;;;1.10;0.25;;;19.60;56.60;;;;;;4992169;28;20072;-77
2023/04/27 06:52:53;;;;;;;1.58;0.22;;;19.70;56.60;;;;;;4988928;28;20046;-77
2023/04/27 06:55:20;;;;;;;0.68;0.20;;;19.70;56.50;;;;;;4991663;28;20053;-76
2023/04/27 06:57:47;;;;;;;1.25;0.20;;;19.70;56.40;;;;;;4982519;28;20061;-77
2023/04/27 07:00:15;;;;;;;1.13;0.20;;;19.80;56.40;;;;;;4983964;28;20144;-77
2023/04/27 07:02:42;;;;;;;0.70;0.10;;;19.90;56.30;;;;;;4996957;28;20573;-76
2023/04/27 07:05:09;;;;;;;0.70;0.17;;;19.90;56.20;;;;;;4982355;28;20054;-76
2023/04/27 07:07:37;;;;;;;1.05;0.10;;;20.00;56.10;;;;;;4994956;28;20051;-77
2023/04/27 07:10:05;;;;;;;0.73;0.30;;;20.10;56.00;;;;;;4989696;28;20058;-76
2023/04/27 07:12:32;;;;;;;0.82;0.20;;;20.20;56.00;;;;;;4990224;28;20053;-75
2023/04/27 07:14:59;;;;;;;1.20;0.32;;;20.20;55.70;;;;;;4991945;28;20054;-77
2023/04/27 07:17:26;;;;;;;0.73;0.13;;;20.30;55.80;;;;;;4992121;28;20057;-77
2023/04/27 07:19:53;;;;;;;1.17;0.20;;;20.30;55.70;;;;;;4991069;28;20064;-76
2023/04/27 07:22:21;;;;;;;0.85;0.20;;;20.40;55.70;;;;;;4989596;28;20054;-76
2023/04/27 07:24:50;;;;;;;1.35;0.20;;;20.40;55.60;;;;;;4992409;28;20053;-77
2023/04/27 07:27:17;;;;;;;1.05;0.60;;;20.30;55.60;;;;;;4991096;28;20055;-77
2023/04/27 07:29:44;;;;;;;0.85;0.20;;;20.40;55.80;;;;;;4991162;28;20633;-76
2023/04/27 07:32:10;;;;;;;1.27;0.20;;;20.30;55.60;;;;;;4989879;28;20046;-76
2023/04/27 07:34:37;;;;;;;0.70;0.20;;;20.30;55.60;;;;;;4988897;28;20108;-76
2023/04/27 07:37:04;;;;;;;1.00;0.30;;;20.30;55.70;;;;;;4985344;28;20054;-76
2023/04/27 07:39:31;;;;;;;2.25;0.30;;;20.30;55.70;;;;;;4984773;28;20097;-77
2023/04/27 07:42:01;;;;;;;0.65;0.20;;;20.30;55.80;;;;;;4996669;28;20495;-77
2023/04/27 07:44:28;;;;;;;;;;;20.30;55.90;;;;;;4993127;28;20105;-77
2023/04/27 07:46:57;;;;;;;0.60;0.15;;;20.20;55.80;;;;;;4990946;28;20004;-77
2023/04/27 07:49:25;;;;;;;1.00;0.30;;;20.20;55.90;;;;;;4987115;28;20050;-76
2023/04/27 07:51:52;;;;;;;1.13;0.30;;;20.20;55.90;;;;;;4989114;28;20116;-76
2023/04/27 07:54:19;;;;;;;0.80;0.20;;;20.20;56.00;;;;;;4986136;28;20055;-76
2023/04/27 07:56:46;;;;;;;0.70;0.10;;;20.10;56.00;;;;;;4991151;28;20050;-77
2023/04/27 07:59:14;;;;;;;0.95;0.15;;;20.10;56.00;;;;;;4975660;28;20066;-77
2023/04/27 08:01:41;;;;;;;0.95;0.20;;;20.10;56.00;;;;;;4993835;28;20065;-77
2023/04/27 08:04:08;;;;;;;1.05;0.40;;;20.10;56.10;;;;;;4981107;28;20050;-76
2023/04/27 08:06:35;;;;;;;0.77;0.20;;;20.00;56.10;;;;;;4989238;28;20046;-76
2023/04/27 08:09:03;;;;;;;0.80;0.30;;;20.00;56.10;;;;;;4988473;28;20068;-76
2023/04/27 08:11:30;;;;;;;0.70;0.25;;;20.00;56.20;;;;;;4988586;28;20090;-76
2023/04/27 08:13:57;;;;;;;1.00;0.38;;;20.00;56.20;;;;;;4998182;28;20097;-77
2023/04/27 08:16:25;;;;;;;1.60;0.20;;;20.00;57.00;;;;;;4988912;28;20123;-76
2023/04/27 08:18:52;;;;;;;0.98;0.50;;;19.90;56.20;;;;;;4988327;28;20427;-76
2023/04/27 08:21:19;;;;;;;1.20;0.60;;;20.00;56.30;;;;;;4989958;28;20053;-76
2023/04/27 08:23:46;;;;;;;1.38;0.20;;;20.00;56.40;;;;;;4985412;28;20047;-82
2023/04/27 08:26:16;;;;;;;2.97;0.22;;;20.00;56.40;;;;;;4982475;28;20054;-76
2023/04/27 08:28:43;;;;;;;1.02;0.20;;;20.00;56.40;;;;;;4989877;28;20065;-76
2023/04/27 08:31:10;;;;;;;1.50;0.10;;;20.00;56.40;;;;;;4995064;28;20054;-76
2023/04/27 08:33:38;;;;;;;1.40;0.20;;;20.00;56.40;;;;;;4979121;28;20066;-76
2023/04/27 08:36:05;;;;;;;0.85;0.40;;;20.10;56.40;;;;;;4991466;28;20051;-75
2023/04/27 08:38:34;;;;;;;0.57;0.13;;;20.00;56.30;;;;;;4989319;28;20070;-75
2023/04/27 08:41:01;;;;;;;0.95;0.10;;;20.10;56.40;;;;;;4989365;28;20060;-76
2023/04/27 08:43:33;;;;;;;0.90;0.17;;;20.10;56.40;;;;;;5024590;28;20046;-75
2023/04/27 08:46:00;;;;;;;1.27;0.30;;;20.10;56.40;;;;;;5022758;28;20054;-76
2023/04/27 08:48:27;;;;;;;1.15;0.20;;;20.10;57.10;;;;;;5028027;28;20050;-74
2023/04/27 08:50:56;;;;;;;1.67;0.45;;;20.10;56.40;;;;;;5025180;28;20478;-76
2023/04/27 08:53:24;;;;;;;0.73;0.10;;;20.10;56.40;;;;;;5026725;28;20081;-73
2023/04/27 08:55:51;;;;;;;0.95;0.20;;;20.10;56.40;;;;;;5028020;28;20053;-75
2023/04/27 08:58:18;;;;;;;0.80;0.22;;;20.10;56.50;;;;;;5018127;28;20494;-75
2023/04/27 09:00:46;;;;;;;0.80;0.20;;;20.10;56.50;;;;;;5022194;28;20061;-75
2023/04/27 09:03:22;;;;;;;1.13;0.30;;;20.10;56.50;;;;;;5022659;28;20619;-76
2023/04/27 09:05:49;;;;;;;0.80;0.20;;;20.10;56.50;;;;;;5020248;28;20049;-75
2023/04/27 09:08:17;;;;;;;1.27;0.22;;;20.10;56.40;;;;;;5027176;28;20514;-76
2023/04/27 09:10:46;;;;;;;0.60;0.20;;;20.10;56.50;;;;;;5026177;28;20049;-75
2023/04/27 09:13:13;;;;;;;0.90;0.30;;;20.10;56.50;;;;;;5025170;28;20061;-75
2023/04/27 09:15:44;;;;;;;1.00;0.20;;;20.10;56.50;;;;;;5025792;28;20061;-75
2023/04/27 09:18:19;;;;;;;1.20;0.30;;;20.10;56.50;;;;;;5016925;28;20157;-76
2023/04/27 09:20:48;;;;;;;1.42;0.30;;;20.10;56.50;;;;;;5022346;28;20045;-76
2023/04/27 09:23:30;;;;;;;1.27;0.30;;;20.20;56.50;;;;;;5026454;28;20628;-76
2023/04/27 09:25:58;;;;;;;0.90;0.25;;;20.10;56.40;;;;;;5026542;28;20140;-75
2023/04/27 09:28:26;;;;;;;1.00;0.30;;;20.20;56.50;;;;;;5025919;28;20056;-76
2023/04/27 09:30:54;;;;;;;1.40;0.25;;;20.20;56.40;;;;;;5024148;28;20419;-76
2023/04/27 09:33:25;;;;;;;1.75;0.30;;;20.10;56.40;;;;;;5025374;28;20053;-76
2023/04/27 09:35:52;;;;;;;2.20;0.25;;;20.20;56.40;;;;;;5025973;28;20050;-75
2023/04/27 09:38:20;;;;;;;0.73;0.20;;;20.20;56.40;;;;;;5025847;28;20050;-76
2023/04/27 09:40:49;;;;;;;1.20;0.20;;;20.20;56.40;;;;;;5027985;28;20060;-74
2023/04/27 09:43:17;;;;;;;0.90;0.35;;;20.20;56.40;;;;;;5024890;28;20061;-75
2023/04/27 09:45:44;;;;;;;1.65;0.25;;;20.20;56.40;;;;;;5014956;28;20060;-75
2023/04/27 09:48:12;;;;;;;1.00;0.38;;;20.20;56.40;;;;;;5025925;28;20064;-76
2023/04/27 09:50:40;;;;;;;1.92;0.30;;;20.20;56.40;;;;;;5023291;28;20046;-75
2023/04/27 09:53:09;;;;;;;1.35;0.30;;;20.20;56.40;;;;;;5026526;28;20052;-75
2023/04/27 09:55:41;;;;;;;0.73;0.30;;;20.20;56.50;;;;;;5026197;28;20489;-76
2023/04/27 09:58:43;;;;;;;0.90;0.10;;;20.20;56.50;;;;;;5031656;28;20085;-76
2023/04/27 10:01:22;;;;;;;0.68;0.30;;;20.20;57.20;;;;;;5015191;28;20045;-75
2023/04/27 10:04:02;;;;;;;0.63;0.15;;;20.20;56.50;;;;;;5026631;28;20049;-75
2023/04/27 10:07:03;;;;;;;1.10;0.20;;;20.20;56.50;;;;;;5024264;28;20041;-75
2023/04/27 10:09:37;;;;;;;0.93;0.30;;;20.20;56.50;;;;;;5006941;28;20057;-74
2023/04/27 10:12:18;;;;;;;1.00;0.20;;;20.30;56.50;;;;;;5026705;28;20049;-76
2023/04/27 10:14:49;;;;;;;0.95;0.40;;;20.30;56.60;;;;;;5026708;28;20057;-75
2023/04/27 10:17:18;;;;;;;0.85;0.20;;;20.20;56.50;;;;;;5029040;28;20088;-73
2023/04/27 10:19:58;;;;;;;1.17;0.35;;;20.20;56.50;;;;;;5027778;28;20041;-75
2023/04/27 10:22:39;;;;;;;0.80;0.20;;;20.20;56.50;;;;;;5018058;28;20045;-75
2023/04/27 10:25:15;;;;;;;1.20;0.22;;;20.20;56.60;;;;;;5026579;28;20046;-74
2023/04/27 10:27:42;;;;;;;2.13;0.35;;;20.20;56.60;;;;;;5028493;28;20054;-75
2023/04/27 10:30:11;;;;;;;1.05;0.30;;;20.20;56.60;;;;;;5028596;28;20513;-76
2023/04/27 10:32:51;;;;;;;0.90;0.35;;;20.20;57.40;;;;;;5029878;28;20490;-75
2023/04/27 10:35:19;;;;;;;0.75;0.22;;;20.20;56.60;;;;;;5028536;28;20139;-75
2023/04/27 10:37:46;;;;;;;1.02;0.28;;;20.20;56.70;;;;;;5028474;28;20045;-76
2023/04/27 10:40:16;;;;;;;1.13;0.30;;;20.20;56.70;;;;;;5026253;28;20045;-74
2023/04/27 10:42:44;;;;;;;1.02;0.20;;;20.20;56.70;;;;;;5028904;28;20100;-76
2023/04/27 10:45:12;;;;;;;1.27;0.17;;;20.20;56.70;;;;;;5028470;28;20041;-75
2023/04/27 10:47:42;;;;;;;0.52;0.10;;;20.20;56.70;;;;;;5029308;28;20057;-76
2023/04/27 10:50:12;;;;;;;1.25;0.20;;;20.20;56.80;;;;;;5029776;28;20041;-75
2023/04/27 10:52:41;;;;;;;1.27;0.40;;;20.20;56.80;;;;;;5028856;28;20079;-75
2023/04/27 10:55:16;;;;;;;1.10;0.20;;;20.20;56.80;;;;;;5026934;28;20052;-76
2023/04/27 10:57:48;;;;;;;1.10;0.25;;;20.20;56.80;;;;;;5028631;28;20054;-75
2023/04/27 11:00:17;;;;;;;0.80;0.10;;;20.20;56.90;;;;;;5029126;28;20069;-76
2023/04/27 11:02:46;;;;;;;0.98;0.32;;;20.20;56.90;;;;;;5027111;28;20856;-75
2023/04/27 11:05:18;;;;;;;0.90;0.20;;;20.20;56.90;;;;;;5030487;28;20052;-75
2023/04/27 11:07:45;;;;;;;1.00;0.28;;;20.10;56.80;;;;;;5024916;28;20046;-75
2023/04/27 11:10:16;;;;;;;1.00;0.25;;;20.10;56.80;;;;;;5021941;28;20465;-76
2023/04/27 11:12:43;;;;;;;1.50;0.30;;;20.10;56.90;;;;;;5030574;28;20567;-75
2023/04/27 11:15:11;;;;;;;1.10;0.30;;;20.10;56.90;;;;;;5022081;28;20053;-76
2023/04/27 11:17:38;;;;;;;1.10;0.20;;;20.10;57.00;;;;;;5029610;28;20041;-73
2023/04/27 11:20:08;;;;;;;1.85;0.38;;;20.10;57.00;;;;;;5028606;28;20061;-76
2023/04/27 11:22:44;;;;;;;1.73;0.45;;;20.10;57.10;;;;;;5031164;28;20061;-76
2023/04/27 11:25:12;;;;;;;0.80;0.25;;;20.10;57.10;;;;;;5025478;28;20092;-77
2023/04/27 11:27:40;;;;;;;1.50;0.50;;;20.00;57.10;;;;;;5030395;28;20407;-76
2023/04/27 11:30:20;;;;;;;1.45;0.35;;;20.10;57.10;;;;;;5024215;28;20504;-76
2023/04/27 11:32:47;;;;;;;0.88;0.30;;;20.00;57.80;;;;;;5027919;28;20056;-76
2023/04/27 11:35:16;;;;;;;1.55;0.20;;;20.00;57.10;;;;;;5020780;28;20053;-77
2023/04/27 11:37:43;;;;;;;1.50;0.45;;;20.00;57.20;;;;;;5028240;28;20100;-83
2023/04/27 11:40:14;;;;;;;1.70;0.40;;;20.00;57.30;;;;;;5023111;28;20049;-81
2023/04/27 11:42:45;;;;;;;1.63;0.40;;;20.00;57.30;;;;;;4990140;28;20419;-75
2023/04/27 11:45:12;;;;;;;1.58;0.30;;;20.00;57.30;;;;;;5004355;28;20380;-82
2023/04/27 11:47:41;;;;;;;1.27;0.30;;;20.00;57.40;;;;;;4997506;28;20439;-83
2023/04/27 11:50:09;;;;;;;1.70;0.30;;;20.10;58.20;;;;;;4998365;28;20046;-83
2023/04/27 11:52:39;;;;;;;1.35;0.40;;;20.10;57.60;;;;;;5009514;28;20061;-83
2023/04/27 11:55:07;;;;;;;;;;;20.10;57.60;;;;;;5008888;28;20050;-85
2023/04/27 11:57:36;;;;;;;1.52;0.32;;;20.10;57.70;;;;;;5008867;28;19929;-76
2023/04/27 12:00:09;;;;;;;0.93;0.50;;;20.10;57.50;;;;;;5003334;28;20438;-80
2023/04/27 12:02:37;;;;;;;1.10;0.20;;;20.10;57.60;;;;;;4993778;28;20109;-78
2023/04/27 12:05:05;;;;;;;1.40;0.47;;;20.10;57.60;;;;;;5006835;28;20104;-77
2023/04/27 12:07:32;;;;;;;1.27;0.30;;;20.20;57.70;;;;;;5007985;28;20399;-78
2023/04/27 12:10:00;;;;;;;1.20;0.35;;;20.20;57.70;;;;;;5008358;28;20057;-77
2023/04/27 12:12:27;;;;;;;1.20;0.50;;;20.30;57.80;;;;;;5000727;28;20050;-81
2023/04/27 12:14:54;;;;;;;2.05;0.40;;;20.30;57.80;;;;;;5006032;28;20054;-79
2023/04/27 12:17:22;;;;;;;1.00;0.35;;;20.30;57.80;;;;;;5000572;28;20046;-78
2023/04/27 12:19:49;;;;;;;1.88;0.45;;;20.30;57.90;;;;;;4998502;28;20070;-79
2023/04/27 12:22:15;;;;;;;0.88;0.20;;;20.30;57.90;;;;;;5007546;28;20057;-77
2023/04/27 12:24:43;;;;;;;0.90;0.40;;;20.40;58.00;;;;;;5009697;28;20560;-77
2023/04/27 12:27:11;;;;;;;1.23;0.28;;;20.30;57.90;;;;;;4998712;28;20045;-77
2023/04/27 12:29:38;;;;;;;1.23;0.22;;;20.40;58.00;;;;;;5004673;28;20057;-76
2023/04/27 12:32:05;;;;;;;1.67;0.30;;;20.40;58.00;;;;;;5010052;28;20082;-75
2023/04/27 12:34:33;;;;;;;1.60;0.32;;;20.40;57.90;;;;;;5010345;28;20133;-76
2023/04/27 12:37:00;;;;;;;0.90;0.30;;;20.50;58.00;;;;;;5006316;28;20085;-81
2023/04/27 12:39:27;;;;;;;1.13;0.40;;;20.50;58.50;;;;;;4993569;28;20057;-79
2023/04/27 12:41:54;;;;;;;2.45;0.30;;;20.50;58.00;;;;;;5009109;28;20740;-82
2023/04/27 12:44:22;;;;;;;2.03;0.30;;;20.50;58.10;;;;;;5006700;28;20050;-81
2023/04/27 12:46:50;;;;;;;2.03;0.30;;;20.50;58.10;;;;;;5009476;28;20050;-86
2023/04/27 12:49:17;;;;;;;1.40;0.30;;;20.50;58.10;;;;;;5009839;28;20060;-88
2023/04/27 12:51:45;;;;;;;2.40;0.75;;;20.50;58.80;;;;;;4997343;28;20491;-89
2023/04/27 12:54:12;;;;;;;1.40;0.20;;;20.50;58.10;;;;;;5008580;28;20056;-82